createdAt,value
2023-04-19T00:00:10.155Z,99.90
2023-04-19T00:02:41.613Z,99.90
2023-04-19T00:05:13.937Z,99.90
2023-04-19T00:07:42.641Z,99.90
2023-04-19T00:10:11.820Z,99.90
2023-04-19T00:12:40.929Z,99.90
2023-04-19T00:15:10.605Z,99.90
2023-04-19T00:17:39.522Z,99.90
2023-04-19T00:20:10.031Z,99.90
2023-04-19T00:22:40.150Z,99.90
2023-04-19T00:25:09.314Z,99.90
2023-04-19T00:27:40.434Z,99.90
2023-04-19T00:30:10.379Z,99.90
2023-04-19T00:32:38.872Z,99.90
2023-04-19T00:35:08.299Z,99.90
2023-04-19T00:37:37.052Z,99.90
2023-04-19T00:40:08.822Z,99.90
2023-04-19T00:42:37.916Z,99.90
2023-04-19T00:45:07.325Z,99.90
2023-04-19T00:47:36.618Z,99.90
2023-04-19T00:50:06.151Z,99.90
2023-04-19T00:52:35.681Z,99.90
2023-04-19T00:55:04.489Z,99.90
2023-04-19T00:57:34.443Z,99.90
2023-04-19T01:00:06.396Z,99.90
2023-04-19T01:02:35.460Z,99.90
2023-04-19T01:05:04.873Z,99.90
2023-04-19T01:07:35.046Z,99.90
2023-04-19T01:10:03.809Z,99.90
2023-04-19T01:12:33.572Z,99.90
2023-04-19T01:15:02.989Z,99.90
2023-04-19T01:17:34.260Z,99.90
2023-04-19T01:20:03.257Z,99.90
2023-04-19T01:22:33.258Z,99.90
2023-04-19T01:25:02.065Z,99.90
2023-04-19T01:27:30.495Z,99.90
2023-04-19T01:29:59.189Z,99.90
2023-04-19T01:32:27.775Z,99.90
2023-04-19T01:34:56.258Z,99.90
2023-04-19T01:37:24.676Z,99.90
2023-04-19T01:39:54.781Z,99.90
2023-04-19T01:42:23.320Z,99.90
2023-04-19T01:44:51.710Z,99.90
2023-04-19T01:47:20.165Z,99.90
2023-04-19T01:49:48.992Z,99.90
2023-04-19T01:52:17.405Z,99.90
2023-04-19T01:54:45.913Z,99.90
2023-04-19T01:57:16.676Z,99.90
2023-04-19T01:59:45.577Z,99.90
2023-04-19T02:02:14.014Z,99.90
2023-04-19T02:04:42.567Z,99.90
2023-04-19T02:07:11.132Z,99.90
2023-04-19T02:09:40.183Z,99.90
2023-04-19T02:12:09.116Z,99.90
2023-04-19T02:14:39.063Z,99.90
2023-04-19T02:17:07.530Z,99.90
2023-04-19T02:19:36.489Z,99.90
2023-04-19T02:22:05.207Z,99.90
2023-04-19T02:24:33.594Z,99.90
2023-04-19T02:27:02.150Z,99.90
2023-04-19T02:29:30.776Z,99.90
2023-04-19T02:32:00.937Z,99.90
2023-04-19T02:34:29.751Z,99.90
2023-04-19T02:36:58.113Z,99.90
2023-04-19T02:39:26.573Z,99.90
2023-04-19T02:41:55.095Z,99.90
2023-04-19T02:44:23.533Z,99.90
2023-04-19T02:46:52.480Z,99.90
2023-04-19T02:49:22.783Z,99.90
2023-04-19T02:51:52.508Z,99.90
2023-04-19T02:54:20.902Z,99.90
2023-04-19T02:56:49.411Z,99.90
2023-04-19T02:59:17.853Z,99.90
2023-04-19T03:01:46.567Z,99.90
2023-04-19T03:04:15.281Z,99.90
2023-04-19T03:06:45.591Z,99.90
2023-04-19T03:09:14.018Z,99.90
2023-04-19T03:11:43.172Z,99.90
2023-04-19T03:14:11.921Z,99.90
2023-04-19T03:16:40.384Z,99.90
2023-04-19T03:19:10.961Z,99.90
2023-04-19T03:21:39.916Z,99.90
2023-04-19T03:24:10.450Z,99.90
2023-04-19T03:26:38.828Z,99.90
2023-04-19T03:29:07.236Z,99.90
2023-04-19T03:31:35.712Z,99.90
2023-04-19T03:34:04.121Z,99.90
2023-04-19T03:36:33.109Z,99.90
2023-04-19T03:39:01.527Z,99.90
2023-04-19T03:41:31.494Z,99.90
2023-04-19T03:44:00.115Z,99.90
2023-04-19T03:46:31.723Z,99.90
2023-04-19T03:49:01.600Z,99.90
2023-04-19T03:51:30.090Z,99.90
2023-04-19T03:53:58.611Z,99.90
2023-04-19T03:56:27.353Z,99.90
2023-04-19T03:58:57.289Z,99.90
2023-04-19T04:01:26.895Z,99.90
2023-04-19T04:03:55.810Z,99.90
2023-04-19T04:06:24.534Z,99.90
2023-04-19T04:08:53.160Z,99.90
2023-04-19T04:11:21.906Z,99.90
2023-04-19T04:13:50.598Z,99.90
2023-04-19T04:16:20.531Z,99.90
2023-04-19T04:18:48.967Z,99.90
2023-04-19T04:21:17.753Z,99.90
2023-04-19T04:23:47.588Z,99.90
2023-04-19T04:26:16.265Z,99.90
2023-04-19T04:28:45.093Z,99.90
2023-04-19T04:31:14.045Z,99.90
2023-04-19T04:33:45.993Z,99.90
2023-04-19T04:36:14.407Z,99.90
2023-04-19T04:38:43.316Z,99.90
2023-04-19T04:41:15.193Z,99.90
2023-04-19T04:43:45.613Z,99.90
2023-04-19T04:46:14.093Z,99.90
2023-04-19T04:48:44.025Z,99.90
2023-04-19T04:51:12.429Z,99.90
2023-04-19T04:53:40.944Z,99.90
2023-04-19T04:56:09.886Z,99.90
2023-04-19T04:58:38.855Z,99.90
2023-04-19T05:01:07.803Z,99.90
2023-04-19T05:03:36.414Z,99.90
2023-04-19T05:06:06.890Z,99.90
2023-04-19T05:08:35.630Z,99.90
2023-04-19T05:11:05.742Z,99.90
2023-04-19T05:13:34.250Z,99.90
2023-04-19T05:16:02.716Z,99.90
2023-04-19T05:18:31.467Z,99.90
2023-04-19T05:20:59.985Z,99.90
2023-04-19T05:23:29.994Z,99.90
2023-04-19T05:25:58.386Z,99.90
2023-04-19T05:28:27.080Z,99.90
2023-04-19T05:30:55.743Z,99.90
2023-04-19T05:33:24.182Z,99.90
2023-04-19T05:35:52.954Z,99.90
2023-04-19T05:38:21.502Z,99.90
2023-04-19T05:40:51.555Z,99.90
2023-04-19T05:43:19.977Z,99.90
2023-04-19T05:45:48.700Z,99.90
2023-04-19T05:48:17.150Z,99.90
2023-04-19T05:50:45.658Z,99.90
2023-04-19T05:53:14.091Z,99.90
2023-04-19T05:55:43.087Z,99.90
2023-04-19T05:58:13.054Z,99.90
2023-04-19T06:00:43.421Z,99.90
2023-04-19T06:03:12.487Z,99.90
2023-04-19T06:05:42.659Z,99.90
2023-04-19T06:08:11.647Z,99.90
2023-04-19T06:10:53.401Z,99.90
2023-04-19T06:13:27.063Z,99.90
2023-04-19T06:15:55.821Z,99.90
2023-04-19T06:18:24.252Z,99.90
2023-04-19T06:20:54.735Z,99.90
2023-04-19T06:23:23.742Z,99.90
2023-04-19T06:25:52.427Z,99.90
2023-04-19T06:28:20.940Z,99.90
2023-04-19T06:30:50.780Z,99.90
2023-04-19T06:33:19.477Z,99.90
2023-04-19T06:35:48.311Z,99.90
2023-04-19T06:38:16.851Z,99.90
2023-04-19T06:40:45.186Z,99.90
2023-04-19T06:43:13.613Z,99.90
2023-04-19T06:45:42.507Z,99.90
2023-04-19T06:48:12.697Z,99.90
2023-04-19T06:50:41.230Z,99.90
2023-04-19T06:53:12.187Z,99.90
2023-04-19T07:08:20.826Z,99.90
2023-04-19T07:10:52.048Z,99.90
2023-04-19T07:13:20.677Z,99.90
2023-04-19T07:15:49.523Z,99.90
2023-04-19T07:18:18.231Z,99.90
2023-04-19T07:20:50.020Z,99.90
2023-04-19T07:23:22.501Z,99.90
2023-04-19T07:25:52.526Z,99.90
2023-04-19T07:28:21.036Z,99.90
2023-04-19T07:30:50.295Z,99.90
2023-04-19T07:33:19.332Z,99.90
2023-04-19T07:35:48.057Z,99.90
2023-04-19T07:38:17.036Z,99.90
2023-04-19T07:40:46.190Z,99.90
2023-04-19T07:43:17.262Z,99.90
2023-04-19T07:45:46.233Z,99.90
2023-04-19T07:48:14.939Z,99.90
2023-04-19T07:50:43.487Z,99.90
2023-04-19T07:53:12.281Z,99.90
2023-04-19T07:55:41.207Z,99.90
2023-04-19T07:58:10.252Z,99.90
2023-04-19T08:00:40.524Z,99.90
2023-04-19T08:03:09.284Z,99.90
2023-04-19T08:05:39.272Z,99.90
2023-04-19T08:08:08.397Z,99.90
2023-04-19T08:10:37.140Z,99.90
2023-04-19T08:13:06.792Z,99.90
2023-04-19T08:18:08.484Z,99.90
2023-04-19T08:20:37.697Z,99.90
2023-04-19T08:23:20.648Z,99.90
2023-04-19T08:25:53.044Z,99.40
2023-04-19T08:28:21.764Z,99.20
2023-04-19T08:30:50.483Z,99.30
2023-04-19T08:33:20.400Z,99.00
2023-04-19T08:35:48.851Z,99.50
2023-04-19T08:38:17.671Z,98.70
2023-04-19T08:40:49.171Z,98.20
2023-04-19T08:43:19.454Z,97.90
2023-04-19T08:45:49.998Z,98.50
2023-04-19T08:48:20.526Z,98.10
2023-04-19T08:51:04.273Z,98.30
2023-04-19T08:53:36.775Z,98.40
2023-04-19T08:56:17.547Z,98.20
2023-04-19T08:59:04.532Z,97.60
2023-04-19T09:01:44.541Z,97.90
2023-04-19T09:04:27.153Z,97.40
2023-04-19T09:07:03.366Z,97.50
2023-04-19T09:09:40.819Z,97.00
2023-04-19T09:12:21.549Z,97.20
2023-04-19T09:15:01.209Z,97.70
2023-04-19T09:17:31.493Z,97.90
2023-04-19T09:20:01.821Z,97.50
2023-04-19T09:22:30.311Z,98.20
2023-04-19T09:27:34.046Z,98.60
2023-04-19T09:30:03.767Z,97.90
2023-04-19T09:32:48.779Z,97.60
2023-04-19T09:35:19.842Z,96.60
2023-04-19T09:40:33.522Z,95.80
2023-04-19T09:45:44.971Z,95.40
2023-04-19T09:48:14.651Z,91.60
2023-04-19T09:51:04.962Z,90.80
2023-04-19T09:53:40.565Z,91.40
2023-04-19T09:56:13.022Z,91.10
2023-04-19T09:58:49.457Z,91.30
2023-04-19T10:01:22.861Z,91.50
2023-04-19T10:03:52.842Z,90.60
2023-04-19T10:08:56.890Z,85.90
2023-04-19T10:11:31.106Z,85.80
2023-04-19T10:14:02.975Z,86.50
2023-04-19T10:16:33.261Z,85.30
2023-04-19T10:19:03.890Z,85.30
2023-04-19T10:21:35.407Z,83.50
2023-04-19T10:24:05.315Z,84.40
2023-04-19T10:27:08.015Z,84.70
2023-04-19T10:30:05.703Z,86.30
2023-04-19T10:32:42.391Z,84.10
2023-04-19T10:35:14.518Z,81.30
2023-04-19T10:38:04.932Z,78.50
2023-04-19T10:41:00.918Z,76.40
2023-04-19T10:43:43.578Z,74.70
2023-04-19T10:46:17.757Z,77.10
2023-04-19T10:48:56.586Z,76.80
2023-04-19T10:51:28.731Z,74.50
2023-04-19T10:54:00.814Z,73.30
2023-04-19T10:57:05.307Z,71.40
2023-04-19T10:59:45.900Z,71.80
2023-04-19T11:02:34.198Z,76.00
2023-04-19T11:05:06.203Z,74.90
2023-04-19T11:07:42.609Z,77.80
2023-04-19T11:10:36.676Z,74.60
2023-04-19T11:13:07.246Z,75.50
2023-04-19T11:15:48.640Z,74.50
2023-04-19T11:18:28.735Z,74.00
2023-04-19T11:21:02.809Z,75.40
2023-04-19T11:23:34.280Z,75.20
2023-04-19T11:26:04.753Z,75.50
2023-04-19T11:28:35.848Z,72.50
2023-04-19T11:31:07.356Z,72.70
2023-04-19T11:33:43.916Z,75.10
2023-04-19T11:36:14.748Z,71.30
2023-04-19T11:38:58.328Z,72.30
2023-04-19T11:41:29.073Z,70.80
2023-04-19T11:43:58.925Z,70.90
2023-04-19T11:46:30.827Z,71.80
2023-04-19T11:49:07.082Z,73.10
2023-04-19T11:51:36.405Z,73.80
2023-04-19T11:54:17.352Z,73.40
2023-04-19T11:57:10.961Z,73.40
2023-04-19T11:59:44.532Z,71.90
2023-04-19T12:02:17.678Z,73.80
2023-04-19T12:04:49.345Z,72.40
2023-04-19T12:07:18.308Z,72.60
2023-04-19T12:09:51.711Z,73.40
2023-04-19T12:15:19.124Z,73.20
2023-04-19T12:18:02.192Z,76.50
2023-04-19T12:20:35.002Z,75.30
2023-04-19T12:23:04.170Z,74.70
2023-04-19T12:25:34.166Z,75.30
2023-04-19T12:28:05.856Z,76.20
2023-04-19T12:30:39.164Z,76.80
2023-04-19T12:33:10.796Z,77.30
2023-04-19T12:35:53.933Z,76.30
2023-04-19T12:38:22.524Z,76.50
2023-04-19T12:40:54.796Z,75.80
2023-04-19T12:43:24.370Z,72.10
2023-04-19T12:45:55.153Z,72.80
2023-04-19T12:48:23.983Z,72.80
2023-04-19T12:51:00.338Z,73.00
2023-04-19T12:53:29.886Z,73.30
2023-04-19T12:55:59.558Z,72.70
2023-04-19T12:58:35.871Z,71.60
2023-04-19T13:01:06.450Z,71.30
2023-04-19T13:03:36.904Z,70.60
2023-04-19T13:06:07.220Z,69.80
2023-04-19T13:08:46.213Z,69.70
2023-04-19T13:11:17.996Z,71.00
2023-04-19T13:13:47.988Z,70.20
2023-04-19T13:16:18.927Z,68.90
2023-04-19T13:18:48.339Z,68.60
2023-04-19T13:21:20.222Z,68.40
2023-04-19T13:23:53.427Z,69.20
2023-04-19T13:26:24.129Z,71.00
2023-04-19T13:28:58.798Z,71.20
2023-04-19T13:31:30.889Z,70.60
2023-04-19T13:34:01.047Z,70.80
2023-04-19T13:36:32.625Z,70.90
2023-04-19T13:39:05.333Z,73.10
2023-04-19T13:41:39.861Z,73.40
2023-04-19T13:44:09.400Z,69.40
2023-04-19T13:46:40.660Z,70.00
2023-04-19T13:49:11.378Z,69.10
2023-04-19T13:51:49.578Z,69.10
2023-04-19T13:54:20.375Z,68.70
2023-04-19T13:56:52.125Z,68.10
2023-04-19T13:59:26.291Z,68.50
2023-04-19T14:02:00.311Z,66.80
2023-04-19T14:04:29.726Z,67.30
2023-04-19T14:07:06.670Z,67.40
2023-04-19T14:09:39.377Z,66.30
2023-04-19T14:12:09.661Z,65.60
2023-04-19T14:14:42.014Z,66.30
2023-04-19T14:17:16.524Z,65.60
2023-04-19T14:19:51.760Z,63.80
2023-04-19T14:22:21.366Z,64.70
2023-04-19T14:24:52.146Z,65.20
2023-04-19T14:27:33.914Z,65.40
2023-04-19T14:30:06.666Z,65.90
2023-04-19T14:32:47.859Z,66.40
2023-04-19T14:35:17.169Z,68.30
2023-04-19T14:37:48.779Z,68.30
2023-04-19T14:40:24.217Z,66.40
2023-04-19T14:42:55.597Z,67.80
2023-04-19T14:45:26.327Z,66.10
2023-04-19T14:48:01.555Z,66.10
2023-04-19T14:50:31.437Z,65.10
2023-04-19T14:53:03.405Z,63.90
2023-04-19T14:55:36.736Z,64.10
2023-04-19T14:58:07.749Z,64.40
2023-04-19T15:00:39.538Z,64.80
2023-04-19T15:03:13.264Z,65.60
2023-04-19T15:05:42.798Z,65.10
2023-04-19T15:08:23.644Z,65.80
2023-04-19T15:11:01.948Z,66.60
2023-04-19T15:13:31.231Z,62.70
2023-04-19T15:16:04.274Z,60.80
2023-04-19T15:18:34.766Z,59.70
2023-04-19T15:21:05.211Z,58.20
2023-04-19T15:23:35.206Z,58.70
2023-04-19T15:26:09.138Z,58.30
2023-04-19T15:28:38.817Z,56.70
2023-04-19T15:31:19.482Z,56.20
2023-04-19T15:33:49.679Z,56.40
2023-04-19T15:36:19.619Z,56.50
2023-04-19T15:38:48.526Z,56.70
2023-04-19T15:41:18.300Z,57.40
2023-04-19T15:43:48.671Z,56.20
2023-04-19T15:46:24.199Z,56.60
2023-04-19T15:48:55.448Z,56.30
2023-04-19T15:51:24.321Z,55.80
2023-04-19T15:53:57.166Z,57.00
2023-04-19T15:56:33.736Z,57.50
2023-04-19T15:59:16.252Z,59.20
2023-04-19T16:01:46.059Z,58.80
2023-04-19T16:04:27.119Z,59.30
2023-04-19T16:06:57.454Z,57.80
2023-04-19T16:09:27.326Z,57.50
2023-04-19T16:12:00.408Z,56.80
2023-04-19T16:14:31.250Z,57.00
2023-04-19T16:17:03.204Z,57.80
2023-04-19T16:19:33.670Z,56.70
2023-04-19T16:22:05.872Z,57.60
2023-04-19T16:24:35.023Z,57.00
2023-04-19T16:27:03.965Z,56.70
2023-04-19T16:29:33.552Z,57.70
2023-04-19T16:32:12.084Z,57.10
2023-04-19T16:34:42.557Z,57.40
2023-04-19T16:37:13.647Z,57.50
2023-04-19T16:39:42.800Z,58.10
2023-04-19T16:42:15.389Z,58.40
2023-04-19T16:44:46.397Z,57.00
2023-04-19T16:47:20.036Z,57.50
2023-04-19T16:49:56.795Z,58.40
2023-04-19T16:52:28.361Z,58.40
2023-04-19T16:55:02.010Z,57.20
2023-04-19T16:57:33.700Z,56.10
2023-04-19T17:00:06.043Z,56.50
2023-04-19T17:02:36.152Z,56.30
2023-04-19T17:05:12.794Z,56.20
2023-04-19T17:07:42.814Z,56.10
2023-04-19T17:10:17.922Z,56.60
2023-04-19T17:12:49.188Z,56.20
2023-04-19T17:15:24.471Z,57.00
2023-04-19T17:17:57.268Z,57.90
2023-04-19T17:20:29.045Z,58.00
2023-04-19T17:22:58.715Z,56.80
2023-04-19T17:25:33.564Z,56.80
2023-04-19T17:28:13.423Z,56.50
2023-04-19T17:30:46.603Z,56.60
2023-04-19T17:33:32.151Z,56.80
2023-04-19T17:36:03.362Z,57.20
2023-04-19T17:38:43.650Z,57.70
2023-04-19T17:41:22.032Z,57.30
2023-04-19T17:43:56.369Z,57.80
2023-04-19T17:46:33.615Z,58.20
2023-04-19T17:49:02.833Z,58.30
2023-04-19T17:51:42.311Z,58.70
2023-04-19T17:54:14.834Z,58.40
2023-04-19T17:56:52.989Z,58.60
2023-04-19T17:59:28.281Z,58.50
2023-04-19T18:02:00.178Z,58.70
2023-04-19T18:04:31.752Z,58.70
2023-04-19T18:07:04.227Z,58.60
2023-04-19T18:09:33.386Z,59.10
2023-04-19T18:12:03.160Z,59.50
2023-04-19T18:14:34.559Z,59.40
2023-04-19T18:17:07.927Z,59.30
2023-04-19T18:19:37.666Z,59.60
2023-04-19T18:22:08.713Z,59.80
2023-04-19T18:24:41.015Z,60.00
2023-04-19T18:27:13.963Z,60.10
2023-04-19T18:29:44.913Z,60.00
2023-04-19T18:32:14.438Z,60.50
2023-04-19T18:34:50.518Z,61.20
2023-04-19T18:37:23.799Z,61.80
2023-04-19T18:39:54.426Z,61.50
2023-04-19T18:42:23.819Z,61.60
2023-04-19T18:44:54.667Z,62.10
2023-04-19T18:47:23.767Z,61.90
2023-04-19T18:50:04.475Z,62.00
2023-04-19T18:52:37.353Z,62.90
2023-04-19T18:55:07.635Z,62.40
2023-04-19T18:57:40.332Z,63.40
2023-04-19T19:00:17.563Z,63.20
2023-04-19T19:02:51.060Z,62.90
2023-04-19T19:05:22.996Z,63.30
2023-04-19T19:07:57.011Z,64.10
2023-04-19T19:13:05.982Z,64.40
2023-04-19T19:15:38.014Z,64.40
2023-04-19T19:18:09.404Z,65.20
2023-04-19T19:20:40.918Z,65.70
2023-04-19T19:23:18.128Z,65.50
2023-04-19T19:25:54.754Z,65.70
2023-04-19T19:28:25.515Z,66.10
2023-04-19T19:30:57.132Z,66.40
2023-04-19T19:33:29.240Z,67.00
2023-04-19T19:35:59.371Z,67.30
2023-04-19T19:38:29.887Z,67.60
2023-04-19T19:41:48.962Z,67.50
2023-04-19T19:43:51.596Z,68.00
2023-04-19T19:46:22.830Z,70.20
2023-04-19T19:48:53.760Z,71.10
2023-04-19T19:51:48.061Z,72.50
2023-04-19T19:54:18.123Z,73.10
2023-04-19T19:59:30.118Z,75.30
2023-04-19T20:02:03.764Z,75.90
2023-04-19T20:04:35.286Z,75.30
2023-04-19T20:09:40.673Z,74.60
2023-04-19T20:12:11.106Z,73.90
2023-04-19T20:14:39.817Z,74.30
2023-04-19T20:17:11.867Z,73.50
2023-04-19T20:19:43.746Z,73.70
2023-04-19T20:22:16.671Z,74.10
2023-04-19T20:24:47.762Z,73.50
2023-04-19T20:27:17.428Z,73.40
2023-04-19T20:29:49.059Z,73.90
2023-04-19T20:32:18.017Z,73.80
2023-04-19T20:34:47.367Z,73.60
2023-04-19T20:37:19.702Z,73.70
2023-04-19T20:39:52.298Z,74.10
2023-04-19T20:42:21.601Z,74.10
2023-04-19T20:44:51.225Z,73.50
2023-04-19T20:47:20.088Z,73.40
2023-04-19T20:49:49.296Z,73.20
2023-04-19T20:52:18.649Z,72.30
2023-04-19T20:54:49.524Z,72.30
2023-04-19T20:57:21.426Z,71.50
2023-04-19T20:59:53.536Z,72.10
2023-04-19T21:02:25.676Z,72.20
2023-04-19T21:04:55.223Z,72.00
2023-04-19T21:07:24.563Z,71.70
2023-04-19T21:09:57.500Z,72.00
2023-04-19T21:12:26.489Z,71.60
2023-04-19T21:14:55.773Z,71.40
2023-04-19T21:17:24.714Z,71.10
2023-04-19T21:19:56.252Z,70.70
2023-04-19T21:22:25.220Z,71.10
2023-04-19T21:24:55.245Z,70.30
2023-04-19T21:27:24.889Z,70.50
2023-04-19T21:29:53.778Z,70.70
2023-04-19T21:32:22.987Z,70.90
2023-04-19T21:34:51.690Z,70.30
2023-04-19T21:37:21.300Z,70.50
2023-04-19T21:39:50.544Z,71.00
2023-04-19T21:42:23.529Z,71.70
2023-04-19T21:44:52.614Z,70.90
2023-04-19T21:47:21.438Z,71.10
2023-04-19T21:49:54.822Z,70.90
2023-04-19T21:52:23.542Z,71.30
2023-04-19T21:54:52.223Z,70.70
2023-04-19T21:57:24.756Z,71.30
2023-04-19T21:59:56.370Z,70.80
2023-04-19T22:02:25.387Z,70.80
2023-04-19T22:04:54.083Z,71.10
2023-04-19T22:07:24.066Z,72.20
2023-04-19T22:09:57.408Z,71.60
2023-04-19T22:12:28.148Z,71.20
2023-04-19T22:14:58.279Z,70.80
2023-04-19T22:17:27.872Z,71.30
2023-04-19T22:20:04.703Z,71.80
2023-04-19T22:22:33.653Z,72.30
2023-04-19T22:25:02.362Z,71.30
2023-04-19T22:27:32.368Z,71.00
2023-04-19T22:30:01.422Z,71.30
2023-04-19T22:32:30.574Z,72.20
2023-04-19T22:34:59.267Z,71.60
2023-04-19T22:37:27.844Z,71.10
2023-04-19T22:39:57.721Z,71.00
2023-04-19T22:42:27.976Z,71.40
2023-04-19T22:44:57.929Z,72.30
2023-04-19T22:47:26.733Z,71.50
2023-04-19T22:49:56.190Z,71.90
2023-04-19T22:52:24.883Z,72.80
2023-04-19T22:54:54.184Z,72.80
2023-04-19T22:57:23.024Z,72.80
2023-04-19T22:59:51.765Z,72.90
2023-04-19T23:02:24.833Z,72.50
2023-04-19T23:04:54.787Z,72.90
2023-04-19T23:07:23.565Z,72.30
2023-04-19T23:09:52.420Z,73.90
2023-04-19T23:12:21.206Z,75.50
2023-04-19T23:14:54.524Z,74.00
2023-04-19T23:17:24.466Z,74.00
2023-04-19T23:19:53.544Z,75.50
2023-04-19T23:22:22.253Z,76.20
2023-04-19T23:24:53.967Z,77.60
2023-04-19T23:27:22.436Z,76.20
2023-04-19T23:29:51.150Z,76.00
2023-04-19T23:32:19.962Z,75.30
2023-04-19T23:34:52.606Z,76.20
2023-04-19T23:37:21.709Z,77.20
2023-04-19T23:39:50.473Z,77.90
2023-04-19T23:42:20.378Z,78.30
2023-04-19T23:44:48.991Z,78.90
2023-04-19T23:47:18.316Z,79.50
2023-04-19T23:49:51.469Z,79.10
2023-04-19T23:52:24.672Z,78.50
2023-04-19T23:54:54.614Z,76.90
2023-04-19T23:57:23.846Z,77.20
2023-04-19T23:59:52.270Z,76.50
